Time;durP1;ratioP1;P1;durP2;ratioP2;P2;SDS_P1;SDS_P2;PMS_P1;PMS_P2;Temp;Humidity;BMP_temperature;BMP_pressure;BME280_temperature;BME280_humidity;BME280_pressure;Samples;Min_cycle;Max_cycle;Signal;HPM_P1;HPM_P2
2023/06/27 00:03:27;;;;;;;;;;;;;;;19.39;95.68;95862.34;10441403;28;2285;-73
2023/06/27 00:08:29;;;;;;;;;;;;;;;19.37;95.62;95868.13;10454715;28;1935;-72
2023/06/27 00:13:32;;;;;;;;;;;;;;;19.25;95.68;95878.91;10445202;28;1977;-73
2023/06/27 00:18:35;;;;;;;;;;;;;;;19.19;95.94;95885.69;10451093;28;2329;-74
2023/06/27 00:23:38;;;;;;;;;;;;;;;19.14;98.28;95885.84;10444748;28;1934;-73
2023/06/27 00:28:41;;;;;;;;;;;;;;;19.17;97.47;95875.09;10450292;28;1909;-73
2023/06/27 00:33:43;;;;;;;;;;;;;;;19.05;96.92;95882.34;10444099;28;2021;-74
2023/06/27 00:38:46;;;;;;;;;;;;;;;19.01;97.61;95881.41;10449116;28;1991;-75
2023/06/27 00:43:48;;;;;;;;;;;;;;;19.02;97.89;95891.16;10447604;28;4486;-74
2023/06/27 00:48:51;;;;;;;;;;;;;;;18.88;98.69;95894.09;10448052;28;1887;-74
2023/06/27 00:53:53;;;;;;;;;;;;;;;18.69;99.35;95888.97;10442941;28;2145;-74
2023/06/27 00:58:57;;;;;;;;;;;;;;;18.74;100.00;95883.38;10445325;28;1880;-74
2023/06/27 01:03:59;;;;;;;;;;;;;;;18.70;100.00;95890.59;10442377;28;2498;-74
2023/06/27 01:09:02;;;;;;;;;;;;;;;18.70;100.00;95896.03;10443929;28;1969;-74
2023/06/27 01:14:05;;;;;;;;;;;;;;;18.51;100.00;95895.53;10438819;28;2272;-73
2023/06/27 01:19:07;;;;;;;;;;;;;;;18.43;100.00;95899.06;10438943;28;1966;-73
2023/06/27 01:24:10;;;;;;;;;;;;;;;18.36;100.00;95902.28;10448692;28;1990;-74
2023/06/27 01:29:13;;;;;;;;;;;;;;;18.20;100.00;95915.56;10443380;28;2267;-75
2023/06/27 01:34:16;;;;;;;;;;;;;;;18.30;100.00;95917.94;10444106;28;1960;-75
2023/06/27 01:39:19;;;;;;;;;;;;;;;18.33;100.00;95919.25;10439447;28;2011;-73
2023/06/27 01:44:21;;;;;;;;;;;;;;;18.36;100.00;95916.69;10440212;28;4541;-73
2023/06/27 01:49:24;;;;;;;;;;;;;;;18.29;100.00;95921.78;10447481;28;2374;-73
2023/06/27 01:54:27;;;;;;;;;;;;;;;18.25;100.00;95920.81;10440833;28;2045;-73
2023/06/27 01:59:29;;;;;;;;;;;;;;;18.32;100.00;95910.28;10439840;28;1981;-74
2023/06/27 02:04:32;;;;;;;;;;;;;;;18.30;100.00;95911.72;10438491;28;2197;-72
2023/06/27 02:09:34;;;;;;;;;;;;;;;18.17;100.00;95905.28;10438614;28;2279;-72
2023/06/27 02:14:36;;;;;;;;;;;;;;;18.04;100.00;95900.81;10440551;28;1977;-73
2023/06/27 02:19:39;;;;;;;;;;;;;;;18.13;100.00;95907.03;10445143;28;2107;-73
2023/06/27 02:24:42;;;;;;;;;;;;;;;18.06;100.00;95907.50;10441052;28;2223;-73
2023/06/27 02:29:44;;;;;;;;;;;;;;;17.96;100.00;95904.31;10428825;28;1955;-73
2023/06/27 02:34:47;;;;;;;;;;;;;;;17.94;100.00;95904.63;10447728;28;1990;-74
2023/06/27 02:39:52;;;;;;;;;;;;;;;17.93;100.00;95902.22;10426777;28;1975;-73
2023/06/27 02:44:55;;;;;;;;;;;;;;;17.84;100.00;95913.09;10436148;28;2113;-73
2023/06/27 02:49:57;;;;;;;;;;;;;;;17.83;100.00;95906.84;10441727;28;1964;-73
2023/06/27 02:54:59;;;;;;;;;;;;;;;17.68;100.00;95915.41;10439725;28;1994;-74
2023/06/27 03:00:03;;;;;;;;;;;;;;;17.53;100.00;95910.41;10441863;28;1983;-71
2023/06/27 03:05:05;;;;;;;;;;;;;;;17.65;100.00;95918.75;10440318;28;2260;-73
2023/06/27 03:10:07;;;;;;;;;;;;;;;17.59;100.00;95920.00;10436890;28;2037;-72
2023/06/27 03:15:10;;;;;;;;;;;;;;;17.71;100.00;95933.00;10433068;28;2014;-72
2023/06/27 03:20:12;;;;;;;;;;;;;;;17.71;100.00;95930.28;10442819;28;2013;-72
2023/06/27 03:25:15;;;;;;;;;;;;;;;17.72;100.00;95930.00;10425092;28;2036;-72
2023/06/27 03:30:17;;;;;;;;;;;;;;;17.69;100.00;95938.78;10439359;28;2129;-72
2023/06/27 03:35:19;;;;;;;;;;;;;;;17.70;100.00;95932.22;10442132;28;2009;-73
2023/06/27 03:40:22;;;;;;;;;;;;;;;17.62;100.00;95940.31;10444004;28;2327;-72
2023/06/27 03:45:24;;;;;;;;;;;;;;;17.78;100.00;95944.25;10449877;28;4494;-73
2023/06/27 03:50:28;;;;;;;;;;;;;;;17.68;100.00;95941.78;10453901;28;2013;-74
2023/06/27 03:55:32;;;;;;;;;;;;;;;17.63;100.00;95942.75;10450738;28;2050;-73
2023/06/27 04:00:35;;;;;;;;;;;;;;;17.62;100.00;95941.13;10445690;28;2278;-72
2023/06/27 04:05:38;;;;;;;;;;;;;;;17.47;100.00;95944.25;10453947;28;1964;-73
2023/06/27 04:10:42;;;;;;;;;;;;;;;17.44;100.00;95947.63;10452698;28;1968;-74
2023/06/27 04:15:44;;;;;;;;;;;;;;;17.37;100.00;95950.78;10430904;28;2243;-74
2023/06/27 04:20:47;;;;;;;;;;;;;;;17.39;100.00;95939.59;10448983;28;1929;-75
2023/06/27 04:25:49;;;;;;;;;;;;;;;17.28;100.00;95953.44;10451398;28;2244;-74
2023/06/27 04:30:54;;;;;;;;;;;;;;;17.20;100.00;95954.22;10448563;28;1935;-73
2023/06/27 04:36:00;;;;;;;;;;;;;;;17.16;100.00;95955.13;10445877;28;2167;-74
2023/06/27 04:41:04;;;;;;;;;;;;;;;17.21;100.00;95968.59;10450359;28;4610;-74
2023/06/27 04:46:06;;;;;;;;;;;;;;;17.34;100.00;95975.84;10447106;28;1936;-74
2023/06/27 04:51:09;;;;;;;;;;;;;;;17.27;100.00;95980.94;10450943;28;2075;-75
2023/06/27 04:56:11;;;;;;;;;;;;;;;17.31;100.00;95978.41;10431934;28;1970;-78
2023/06/27 05:01:14;;;;;;;;;;;;;;;17.50;100.00;95987.94;10447208;28;2311;-75
2023/06/27 05:06:16;;;;;;;;;;;;;;;17.47;100.00;95991.25;10452442;28;1944;-73
2023/06/27 05:11:19;;;;;;;;;;;;;;;17.69;100.00;95982.25;10451837;28;2154;-75
2023/06/27 05:16:21;;;;;;;;;;;;;;;17.69;100.00;95985.00;10447290;28;1989;-73
2023/06/27 05:21:24;;;;;;;;;;;;;;;18.18;100.00;95983.06;10444976;28;2263;-74
2023/06/27 05:26:26;;;;;;;;;;;;;;;18.06;100.00;95991.03;10448189;28;2208;-74
2023/06/27 05:31:29;;;;;;;;;;;;;;;18.26;100.00;95995.91;10445026;28;1974;-74
2023/06/27 05:36:31;;;;;;;;;;;;;;;18.00;100.00;96000.47;10446378;28;1975;-75
2023/06/27 05:41:33;;;;;;;;;;;;;;;17.89;100.00;96004.59;10452823;28;2128;-74
2023/06/27 05:46:54;;;;;;;;;;;;;;;17.97;100.00;95990.22;10455374;28;1914;-74
2023/06/27 05:51:57;;;;;;;;;;;;;;;18.11;100.00;96001.78;10452171;28;1994;-74
2023/06/27 05:57:00;;;;;;;;;;;;;;;18.01;100.00;96002.09;10454261;28;2323;-75
2023/06/27 06:02:02;;;;;;;;;;;;;;;18.46;100.00;95996.44;10440850;28;1958;-76
2023/06/27 06:07:05;;;;;;;;;;;;;;;18.80;100.00;95990.22;10443084;28;2121;-74
2023/06/27 06:12:07;;;;;;;;;;;;;;;19.02;100.00;95989.25;10446568;28;1971;-75
2023/06/27 06:17:10;;;;;;;;;;;;;;;18.87;100.00;95985.88;10442833;28;2201;-75
2023/06/27 06:22:12;;;;;;;;;;;;;;;18.79;100.00;95986.69;10446779;28;1887;-75
2023/06/27 06:27:14;;;;;;;;;;;;;;;18.58;100.00;95991.16;10445852;28;1909;-74
2023/06/27 06:32:17;;;;;;;;;;;;;;;18.39;100.00;96002.34;10442941;28;1868;-73
2023/06/27 06:37:19;;;;;;;;;;;;;;;18.45;100.00;96006.53;10447168;28;2629;-74
2023/06/27 06:42:22;;;;;;;;;;;;;;;18.37;100.00;96010.00;10442396;28;4598;-75
2023/06/27 06:47:24;;;;;;;;;;;;;;;18.54;100.00;96020.94;10446974;28;1892;-75
2023/06/27 06:52:27;;;;;;;;;;;;;;;17.83;100.00;96023.78;10417614;28;2423;-77
2023/06/27 06:57:29;;;;;;;;;;;;;;;18.11;100.00;96023.53;10417178;28;1951;-75
2023/06/27 07:02:31;;;;;;;;;;;;;;;18.07;100.00;96038.91;10433852;28;1919;-77
2023/06/27 07:07:34;;;;;;;;;;;;;;;17.86;100.00;96032.41;10417593;28;1996;-76
2023/06/27 07:12:37;;;;;;;;;;;;;;;17.83;100.00;96020.25;10434764;28;1967;-77
2023/06/27 07:17:39;;;;;;;;;;;;;;;18.46;100.00;96018.22;10453335;28;1910;-76
2023/06/27 07:22:42;;;;;;;;;;;;;;;19.63;100.00;96012.56;10455475;28;1877;-74
2023/06/27 07:27:44;;;;;;;;;;;;;;;20.01;99.10;95991.88;10460770;28;1923;-74
2023/06/27 07:32:47;;;;;;;;;;;;;;;21.07;93.11;95991.69;10447321;28;1835;-76
2023/06/27 07:37:49;;;;;;;;;;;;;;;20.38;93.11;95998.44;10452646;28;1979;-76
2023/06/27 07:42:52;;;;;;;;;;;;;;;20.06;95.38;95995.22;10454073;28;1885;-75
2023/06/27 07:47:54;;;;;;;;;;;;;;;20.09;96.78;95999.22;10454017;28;2263;-75
2023/06/27 07:52:56;;;;;;;;;;;;;;;20.69;97.36;96000.81;10444882;28;1890;-76
2023/06/27 07:57:59;;;;;;;;;;;;;;;21.33;90.88;95995.00;10444838;28;1918;-77
2023/06/27 08:03:02;;;;;;;;;;;;;;;21.12;84.09;95988.72;10452559;28;1916;-76
2023/06/27 08:08:05;;;;;;;;;;;;;;;21.81;78.15;95985.28;10454438;28;2206;-76
2023/06/27 08:13:07;;;;;;;;;;;;;;;20.77;71.50;95989.03;10449426;28;1934;-75
2023/06/27 08:18:10;;;;;;;;;;;;;;;21.02;70.99;95985.28;10448819;28;2058;-76
2023/06/27 08:23:12;;;;;;;;;;;;;;;21.32;68.86;95982.47;10447642;28;2093;-76
2023/06/27 08:28:15;;;;;;;;;;;;;;;22.15;65.90;95983.31;10440549;28;1960;-75
2023/06/27 08:33:18;;;;;;;;;;;;;;;21.86;67.58;95985.88;10442632;28;1888;-75
2023/06/27 08:38:20;;;;;;;;;;;;;;;20.81;73.87;95979.03;10444551;28;1986;-75
2023/06/27 08:43:22;;;;;;;;;;;;;;;21.48;72.55;95977.13;10440478;28;4611;-75
2023/06/27 08:48:26;;;;;;;;;;;;;;;21.73;72.68;95969.78;10439442;28;1863;-76
2023/06/27 08:53:28;;;;;;;;;;;;;;;21.50;71.66;95967.47;10445458;28;1909;-75
2023/06/27 08:58:31;;;;;;;;;;;;;;;20.73;75.56;95966.22;10446028;28;1981;-75
2023/06/27 09:03:34;;;;;;;;;;;;;;;21.26;74.67;95962.72;10439725;28;1825;-75
2023/06/27 09:08:37;;;;;;;;;;;;;;;21.78;73.50;95955.88;10438685;28;1984;-75
2023/06/27 09:13:39;;;;;;;;;;;;;;;22.15;69.00;95948.50;10441884;28;1971;-74
2023/06/27 09:18:43;;;;;;;;;;;;;;;22.48;66.40;95962.03;10445535;28;1977;-74
2023/06/27 09:23:47;;;;;;;;;;;;;;;21.36;69.31;95966.97;10423277;28;2018;-74
2023/06/27 09:28:49;;;;;;;;;;;;;;;22.30;68.73;95963.44;10424326;28;1909;-74
2023/06/27 09:33:51;;;;;;;;;;;;;;;22.56;62.52;95963.84;10442528;28;1972;-74
2023/06/27 09:39:04;;;;;;;;;;;;;;;22.40;63.42;95952.00;10434567;28;2356;-75
2023/06/27 09:44:07;;;;;;;;;;;;;;;22.73;64.63;95948.28;10436336;28;4988;-74
2023/06/27 09:49:10;;;;;;;;;;;;;;;23.41;62.68;95937.25;10439358;28;1865;-73
2023/06/27 09:54:13;;;;;;;;;;;;;;;23.36;57.98;95934.78;10439660;28;2023;-74
2023/06/27 09:59:35;;;;;;;;;;;;;;;24.79;53.87;95925.25;10437923;28;1994;-75
2023/06/27 10:04:38;;;;;;;;;;;;;;;25.58;47.83;95920.13;10434896;28;1897;-74
2023/06/27 10:10:00;;;;;;;;;;;;;;;25.11;50.36;95916.88;10443454;28;1873;-74
2023/06/27 10:15:03;;;;;;;;;;;;;;;24.44;51.54;95915.09;10446526;28;1977;-74
2023/06/27 10:20:08;;;;;;;;;;;;;;;24.99;50.36;95915.03;10449515;28;1929;-74
2023/06/27 10:25:10;;;;;;;;;;;;;;;25.34;50.65;95914.97;10436366;28;1842;-76
2023/06/27 10:30:13;;;;;;;;;;;;;;;24.94;52.91;95904.31;10446774;28;1868;-75
2023/06/27 10:35:16;;;;;;;;;;;;;;;24.39;53.72;95911.84;10448715;28;2460;-73
2023/06/27 10:40:18;;;;;;;;;;;;;;;24.87;52.00;95918.72;10434533;28;1967;-74
2023/06/27 10:45:21;;;;;;;;;;;;;;;24.85;50.88;95914.75;10440842;28;2014;-73
2023/06/27 10:50:24;;;;;;;;;;;;;;;24.80;52.14;95918.56;10433992;28;1957;-74
2023/06/27 10:55:26;;;;;;;;;;;;;;;25.32;51.00;95906.25;10436469;28;1983;-73
2023/06/27 11:00:31;;;;;;;;;;;;;;;24.82;51.05;95916.28;10431791;28;1987;-75
2023/06/27 11:05:34;;;;;;;;;;;;;;;25.43;49.61;95911.97;10436125;28;1895;-74
2023/06/27 11:10:37;;;;;;;;;;;;;;;26.60;46.67;95904.81;10434772;28;1905;-74
2023/06/27 11:15:39;;;;;;;;;;;;;;;26.05;46.83;95904.38;10430674;28;2082;-75
2023/06/27 11:20:42;;;;;;;;;;;;;;;25.77;48.80;95900.00;10431297;28;1826;-73
2023/06/27 11:25:45;;;;;;;;;;;;;;;25.54;50.02;95913.75;10432789;28;1896;-74
2023/06/27 11:30:48;;;;;;;;;;;;;;;25.42;47.85;95902.13;10431965;28;2410;-77
2023/06/27 11:35:51;;;;;;;;;;;;;;;25.53;50.27;95906.66;10432117;28;2008;-74
2023/06/27 11:40:53;;;;;;;;;;;;;;;24.79;47.79;95889.50;10436621;28;1900;-75
2023/06/27 11:45:57;;;;;;;;;;;;;;;24.83;50.59;95897.84;10438198;28;1907;-76
2023/06/27 11:50:59;;;;;;;;;;;;;;;25.13;49.79;95893.34;10438787;28;1490;-76
2023/06/27 11:56:02;;;;;;;;;;;;;;;24.97;50.87;95887.09;10436877;28;2073;-74
2023/06/27 12:01:23;;;;;;;;;;;;;;;24.86;51.38;95880.59;10435884;28;1951;-75
2023/06/27 12:06:26;;;;;;;;;;;;;;;23.29;61.66;95874.25;10441157;28;1844;-76
2023/06/27 12:11:28;;;;;;;;;;;;;;;23.22;64.90;95879.53;10439881;28;1908;-76
2023/06/27 12:16:33;;;;;;;;;;;;;;;23.70;62.20;95876.50;10416112;28;2428;-77
2023/06/27 12:21:37;;;;;;;;;;;;;;;23.97;60.92;95882.19;10441420;28;1931;-76
2023/06/27 12:26:40;;;;;;;;;;;;;;;24.49;59.27;95881.03;10440953;28;2140;-74
2023/06/27 12:31:43;;;;;;;;;;;;;;;24.26;58.69;95878.97;10437960;28;2438;-76
2023/06/27 12:36:46;;;;;;;;;;;;;;;24.98;56.71;95863.94;10442515;28;1914;-76
2023/06/27 12:41:50;;;;;;;;;;;;;;;23.99;59.96;95877.16;10440188;28;4489;-75
2023/06/27 12:46:52;;;;;;;;;;;;;;;23.22;65.11;95852.13;10440667;28;1918;-76
2023/06/27 12:51:55;;;;;;;;;;;;;;;24.77;59.45;95845.88;10437586;28;1830;-75
2023/06/27 12:56:58;;;;;;;;;;;;;;;23.99;60.70;95839.53;10440164;28;2021;-73
2023/06/27 13:02:01;;;;;;;;;;;;;;;23.85;60.68;95844.69;10420789;28;1917;-75
2023/06/27 13:07:03;;;;;;;;;;;;;;;24.96;57.10;95834.06;10441804;28;1892;-75
2023/06/27 13:12:06;;;;;;;;;;;;;;;25.23;56.86;95826.72;10418649;28;1967;-76
2023/06/27 13:17:09;;;;;;;;;;;;;;;25.27;55.70;95822.09;10443152;28;1922;-75
2023/06/27 13:22:12;;;;;;;;;;;;;;;25.01;54.14;95824.72;10436589;28;1928;-76
2023/06/27 13:27:15;;;;;;;;;;;;;;;25.50;53.04;95818.50;10441289;28;2364;-74
2023/06/27 13:32:18;;;;;;;;;;;;;;;26.33;52.43;95805.56;10440807;28;1881;-75
2023/06/27 13:37:21;;;;;;;;;;;;;;;24.95;51.55;95813.25;10441563;28;1993;-74
2023/06/27 13:42:24;;;;;;;;;;;;;;;24.43;53.51;95814.59;10437963;28;4564;-75
2023/06/27 13:47:27;;;;;;;;;;;;;;;24.96;54.07;95797.53;10442880;28;1887;-74
2023/06/27 13:52:29;;;;;;;;;;;;;;;25.26;50.86;95804.00;10440438;28;1905;-76
2023/06/27 13:57:32;;;;;;;;;;;;;;;25.05;51.60;95807.16;10440340;28;1926;-79
2023/06/27 14:02:34;;;;;;;;;;;;;;;24.89;52.19;95802.91;10443778;28;1870;-74
2023/06/27 14:07:38;;;;;;;;;;;;;;;24.18;54.63;95800.31;10436694;28;1901;-77
2023/06/27 14:12:41;;;;;;;;;;;;;;;24.02;59.04;95799.56;10434626;28;2093;-74
2023/06/27 14:17:43;;;;;;;;;;;;;;;23.86;60.22;95798.84;10437653;28;1980;-75
2023/06/27 14:22:46;;;;;;;;;;;;;;;24.73;55.37;95787.28;10435463;28;1878;-74
2023/06/27 14:27:49;;;;;;;;;;;;;;;24.07;56.46;95785.56;10430316;28;2167;-77
2023/06/27 14:32:52;;;;;;;;;;;;;;;23.75;58.76;95782.13;10438348;28;1978;-77
2023/06/27 14:37:55;;;;;;;;;;;;;;;23.87;58.12;95778.47;10439544;28;1988;-74
2023/06/27 14:42:58;;;;;;;;;;;;;;;24.17;56.88;95775.94;10439308;28;4578;-75
2023/06/27 14:48:00;;;;;;;;;;;;;;;24.23;57.41;95769.78;10438320;28;1908;-75
2023/06/27 14:53:03;;;;;;;;;;;;;;;24.21;57.00;95771.31;10442366;28;2092;-75
2023/06/27 14:58:05;;;;;;;;;;;;;;;23.45;57.98;95768.06;10439512;28;2018;-75
2023/06/27 15:03:08;;;;;;;;;;;;;;;23.24;59.19;95773.06;10435555;28;1957;-75
2023/06/27 15:08:13;;;;;;;;;;;;;;;23.36;59.85;95765.53;10433966;28;1987;-75
2023/06/27 15:13:15;;;;;;;;;;;;;;;23.84;58.72;95757.19;10436607;28;1923;-73
2023/06/27 15:18:18;;;;;;;;;;;;;;;24.23;57.18;95758.81;10435866;28;2323;-74
2023/06/27 15:23:21;;;;;;;;;;;;;;;23.97;56.04;95755.91;10431781;28;1884;-74
2023/06/27 15:28:38;;;;;;;;;;;;;;;23.59;59.15;95753.88;10435276;28;1928;-75
2023/06/27 15:33:41;;;;;;;;;;;;;;;23.05;59.29;95766.34;10434715;28;1909;-75
2023/06/27 15:38:43;;;;;;;;;;;;;;;23.66;58.76;95760.34;10441233;28;1931;-72
2023/06/27 15:43:46;;;;;;;;;;;;;;;23.70;57.38;95754.94;10437453;28;4632;-74
2023/06/27 15:48:48;;;;;;;;;;;;;;;24.03;57.65;95743.50;10444055;28;1871;-73
2023/06/27 15:53:51;;;;;;;;;;;;;;;23.85;56.76;95753.28;10443427;28;1895;-74
2023/06/27 15:58:54;;;;;;;;;;;;;;;24.09;57.27;95742.03;10442350;28;2048;-75
2023/06/27 16:03:56;;;;;;;;;;;;;;;23.51;57.41;95749.38;10444717;28;1924;-75
2023/06/27 16:08:59;;;;;;;;;;;;;;;23.06;58.67;95751.47;10437082;28;1908;-76
2023/06/27 16:14:02;;;;;;;;;;;;;;;22.74;61.06;95739.66;10430465;28;1932;-75
2023/06/27 16:19:04;;;;;;;;;;;;;;;22.21;63.00;95751.94;10432552;28;1919;-76
2023/06/27 16:24:09;;;;;;;;;;;;;;;22.45;62.82;95731.84;10442236;28;1920;-76
2023/06/27 16:29:12;;;;;;;;;;;;;;;22.50;63.33;95726.91;10438877;28;1884;-76
2023/06/27 16:34:15;;;;;;;;;;;;;;;22.27;65.04;95721.22;10423598;28;2056;-76
2023/06/27 16:39:17;;;;;;;;;;;;;;;21.70;68.37;95752.41;10446351;28;1981;-75
2023/06/27 16:44:20;;;;;;;;;;;;;;;21.55;70.67;95737.47;10442166;28;4504;-75
2023/06/27 16:49:23;;;;;;;;;;;;;;;21.79;69.73;95730.38;10441687;28;1884;-75
2023/06/27 16:54:25;;;;;;;;;;;;;;;21.65;69.81;95735.44;10439098;28;1876;-73
2023/06/27 16:59:28;;;;;;;;;;;;;;;21.12;71.45;95738.09;10438835;28;1971;-74
2023/06/27 17:04:31;;;;;;;;;;;;;;;21.55;69.13;95740.22;10438144;28;1927;-74
2023/06/27 17:09:34;;;;;;;;;;;;;;;21.44;69.58;95741.84;10442469;28;2310;-74
2023/06/27 17:14:37;;;;;;;;;;;;;;;20.95;72.24;95741.81;10443267;28;1837;-73
2023/06/27 17:19:39;;;;;;;;;;;;;;;20.99;71.86;95739.19;10445564;28;2003;-72
2023/06/27 17:24:42;;;;;;;;;;;;;;;20.71;72.44;95744.53;10442976;28;2083;-72
2023/06/27 17:29:44;;;;;;;;;;;;;;;20.92;72.29;95749.91;10440638;28;1916;-72
2023/06/27 17:34:47;;;;;;;;;;;;;;;20.92;71.71;95745.22;10440059;28;1953;-74
2023/06/27 17:39:49;;;;;;;;;;;;;;;20.88;69.03;95741.59;10443797;28;1915;-74
2023/06/27 17:44:52;;;;;;;;;;;;;;;20.69;68.93;95730.41;10446988;28;4554;-73
2023/06/27 17:49:55;;;;;;;;;;;;;;;20.66;68.85;95731.09;10449789;28;1904;-73
2023/06/27 17:54:58;;;;;;;;;;;;;;;20.52;67.10;95728.66;10439279;28;1991;-73
2023/06/27 18:00:01;;;;;;;;;;;;;;;20.43;67.40;95733.41;10424711;28;1972;-74
2023/06/27 18:05:03;;;;;;;;;;;;;;;20.44;68.08;95719.41;10443066;28;2318;-74
2023/06/27 18:10:06;;;;;;;;;;;;;;;20.42;67.47;95721.69;10437428;28;1880;-72
2023/06/27 18:15:09;;;;;;;;;;;;;;;20.30;67.45;95726.31;10443227;28;2063;-74
2023/06/27 18:20:11;;;;;;;;;;;;;;;20.35;68.16;95724.16;10452660;28;1902;-78
2023/06/27 18:25:14;;;;;;;;;;;;;;;20.19;67.02;95734.91;10458894;28;2190;-76
2023/06/27 18:30:17;;;;;;;;;;;;;;;20.10;67.18;95727.94;10457338;28;1997;-73
2023/06/27 18:35:20;;;;;;;;;;;;;;;20.07;68.06;95731.34;10461431;28;1878;-73
2023/06/27 18:40:22;;;;;;;;;;;;;;;19.98;68.50;95715.88;10446722;28;1891;-73
2023/06/27 18:45:25;;;;;;;;;;;;;;;20.03;67.20;95714.03;10453041;28;4525;-74
2023/06/27 18:50:28;;;;;;;;;;;;;;;19.78;68.57;95713.94;10463113;28;1917;-75
2023/06/27 18:55:30;;;;;;;;;;;;;;;19.75;68.91;95705.63;10459472;28;1895;-75
2023/06/27 19:00:33;;;;;;;;;;;;;;;19.59;70.02;95713.59;10465002;28;1914;-74
2023/06/27 19:05:38;;;;;;;;;;;;;;;19.66;71.22;95705.72;10457912;28;2247;-74
2023/06/27 19:10:43;;;;;;;;;;;;;;;19.68;72.15;95706.16;10454831;28;1903;-80
2023/06/27 19:15:56;;;;;;;;;;;;;;;19.68;70.99;95706.16;10461230;28;1884;-80
2023/06/27 19:20:59;;;;;;;;;;;;;;;19.68;71.63;95711.63;10462551;28;1910;-81
2023/06/27 19:26:02;;;;;;;;;;;;;;;19.69;72.07;95715.94;10465327;28;2254;-81
2023/06/27 19:31:04;;;;;;;;;;;;;;;19.70;71.61;95726.50;10465101;28;2092;-83
2023/06/27 19:36:08;;;;;;;;;;;;;;;19.49;71.74;95733.06;10465781;28;1882;-80
2023/06/27 19:41:11;;;;;;;;;;;;;;;19.50;71.71;95730.00;10450441;28;1914;-77
2023/06/27 19:46:13;;;;;;;;;;;;;;;19.50;72.08;95734.66;10460712;28;1880;-76
2023/06/27 19:51:15;;;;;;;;;;;;;;;19.53;71.89;95736.72;10462889;28;2020;-80
2023/06/27 19:56:18;;;;;;;;;;;;;;;19.45;72.38;95739.16;10459896;28;2142;-80
2023/06/27 20:01:21;;;;;;;;;;;;;;;19.41;71.95;95742.91;10454656;28;2311;-80
2023/06/27 20:06:24;;;;;;;;;;;;;;;19.40;73.26;95742.09;10464691;28;1822;-82
2023/06/27 20:11:27;;;;;;;;;;;;;;;19.41;72.95;95749.16;10457339;28;1920;-75
2023/06/27 20:16:29;;;;;;;;;;;;;;;19.39;73.86;95740.50;10460738;28;1886;-75
2023/06/27 20:21:32;;;;;;;;;;;;;;;19.41;75.21;95738.25;10463327;28;1953;-75
2023/06/27 20:26:34;;;;;;;;;;;;;;;19.44;75.09;95742.22;10466074;28;1833;-74
2023/06/27 20:31:37;;;;;;;;;;;;;;;19.47;76.73;95743.47;10459474;28;2036;-75
2023/06/27 20:36:39;;;;;;;;;;;;;;;19.51;78.06;95752.59;10461384;28;2165;-73
2023/06/27 20:41:42;;;;;;;;;;;;;;;19.52;75.54;95755.00;10461431;28;4545;-75
2023/06/27 20:46:44;;;;;;;;;;;;;;;19.44;76.18;95745.75;10463101;28;1905;-74
2023/06/27 20:51:47;;;;;;;;;;;;;;;19.53;76.85;95739.44;10465959;28;1973;-74
2023/06/27 20:56:52;;;;;;;;;;;;;;;19.49;77.26;95733.06;10466459;28;1956;-73
2023/06/27 21:01:55;;;;;;;;;;;;;;;19.46;78.20;95729.06;10460377;28;1854;-76
2023/06/27 21:06:58;;;;;;;;;;;;;;;19.51;78.16;95741.69;10467134;28;1825;-74
2023/06/27 21:12:00;;;;;;;;;;;;;;;19.48;78.08;95737.72;10467534;28;1957;-73
2023/06/27 21:17:03;;;;;;;;;;;;;;;19.49;78.83;95738.53;10466003;28;2120;-74
2023/06/27 21:22:06;;;;;;;;;;;;;;;19.40;80.15;95736.66;10456775;28;2085;-75
2023/06/27 21:27:09;;;;;;;;;;;;;;;19.40;81.82;95752.19;10460512;28;2171;-74
2023/06/27 21:32:12;;;;;;;;;;;;;;;19.14;97.73;95744.16;10462728;28;1844;-73
2023/06/27 21:37:22;;;;;;;;;;;;;;;18.81;98.43;95754.88;10461785;28;1959;-75
2023/06/27 21:42:24;;;;;;;;;;;;;;;18.80;96.30;95756.03;10459681;28;4628;-74
2023/06/27 21:47:27;;;;;;;;;;;;;;;18.86;95.69;95741.91;10465914;28;1932;-74
2023/06/27 21:52:30;;;;;;;;;;;;;;;18.92;96.68;95741.72;10457762;28;1869;-75
2023/06/27 21:57:32;;;;;;;;;;;;;;;18.89;95.50;95743.97;10444702;28;1898;-75
2023/06/27 22:02:35;;;;;;;;;;;;;;;18.83;97.59;95749.91;10457808;28;1945;-75
2023/06/27 22:07:37;;;;;;;;;;;;;;;18.62;97.18;95761.50;10459469;28;1912;-74
2023/06/27 22:12:40;;;;;;;;;;;;;;;18.59;98.39;95751.25;10464459;28;1884;-74
2023/06/27 22:17:43;;;;;;;;;;;;;;;18.37;100.00;95767.78;10458895;28;1931;-75
2023/06/27 22:22:46;;;;;;;;;;;;;;;18.33;100.00;95754.06;10464398;28;1907;-75
2023/06/27 22:27:48;;;;;;;;;;;;;;;18.39;100.00;95743.81;10456655;28;1972;-75
2023/06/27 22:32:51;;;;;;;;;;;;;;;18.45;100.00;95749.84;10459076;28;1958;-73
2023/06/27 22:37:53;;;;;;;;;;;;;;;18.60;100.00;95744.69;10461258;28;1897;-75
2023/06/27 22:42:56;;;;;;;;;;;;;;;18.59;100.00;95728.69;10461312;28;4734;-75
2023/06/27 22:47:59;;;;;;;;;;;;;;;18.45;100.00;95733.50;10443589;28;2314;-75
2023/06/27 22:53:02;;;;;;;;;;;;;;;18.51;100.00;95741.22;10463580;28;1900;-75
2023/06/27 22:58:04;;;;;;;;;;;;;;;18.44;100.00;95737.38;10461636;28;1964;-75
2023/06/27 23:03:06;;;;;;;;;;;;;;;18.41;100.00;95733.38;10458756;28;1849;-73
2023/06/27 23:08:09;;;;;;;;;;;;;;;18.34;100.00;95739.31;10464816;28;1948;-74
2023/06/27 23:13:12;;;;;;;;;;;;;;;18.35;99.60;95746.34;10452517;28;1910;-74
2023/06/27 23:18:16;;;;;;;;;;;;;;;18.23;99.61;95737.25;10467743;28;1998;-74
2023/06/27 23:23:19;;;;;;;;;;;;;;;18.21;99.37;95740.31;10437610;28;1884;-74
2023/06/27 23:28:24;;;;;;;;;;;;;;;18.27;100.00;95733.56;10461204;28;1863;-74
2023/06/27 23:33:28;;;;;;;;;;;;;;;17.53;100.00;95742.69;10462428;28;1909;-75
2023/06/27 23:38:30;;;;;;;;;;;;;;;16.85;100.00;95751.47;10466485;28;1914;-74
2023/06/27 23:43:32;;;;;;;;;;;;;;;16.63;100.00;95747.69;10466929;28;2389;-72
2023/06/27 23:48:35;;;;;;;;;;;;;;;16.43;100.00;95764.50;10456387;28;1962;-73
2023/06/27 23:53:37;;;;;;;;;;;;;;;16.21;100.00;95751.75;10451067;28;1959;-73
2023/06/27 23:58:39;;;;;;;;;;;;;;;16.15;100.00;95753.81;10459092;28;1905;-74
